Surface/Precipitation History
07/30/2014 01:25  to  7/31/2014 01:25
Change End Date:
Date/Time
(MDT)
Sf
Temp Chem Water Layer Surface Precipitation
Sf Sub Frz Factor Pct Depth IcePct Cond Salin Type Intens Accum Rate
07/31/2014 00:57 Dry 54.3F 76F - - - - - 36 mhos 3098 None None - -
07/31/2014 00:55 Dry 54.5F 76F - - - - - 37 mhos 3115 None None - -
07/31/2014 00:47 Dry 54.9F 76F - - - - - 37 mhos 3126 None None - -
07/31/2014 00:37 Dry 55.0F 76F - - - - - 37 mhos 3114 None None - -
07/31/2014 00:27 Dry 55.6F 76F - - - - - 37 mhos 3097 None None - -
07/31/2014 00:25 Dry 55.6F 77F - - - - - 37 mhos 3097 None None - -
07/31/2014 00:16 Dry 56.1F 77F - - - - - 37 mhos 3080 None None - -
07/31/2014 00:06 Dry 56.5F 77F - - - - - 37 mhos 3040 None None - -
07/30/2014 23:58 Dry 56.8F 77F - - - - - 36 mhos 3007 - - - -
07/30/2014 23:56 Dry 57.0F 77F - - - - - 36 mhos 2980 None None - -
07/30/2014 23:46 Dry 57.2F 77F - - - - - 36 mhos 2933 None None - -
07/30/2014 23:41 Dry 57.4F 77F - - - - - 36 mhos 2986 None None - -
07/30/2014 23:36 Dry 57.4F 77F - - - - - 36 mhos 2986 None None - -
07/30/2014 23:26 Dry 57.6F 77F - - - - - 36 mhos 2918 None None - -
07/30/2014 23:16 Dry 57.6F 77F - - - - - 35 mhos 2877 None None - -
Date/Time
(MDT)
Sf
Temp Chem Water Layer Surface Precipitation
Sf Sub Frz Factor Pct Depth IcePct Cond Salin Type Intens Accum Rate
07/30/2014 23:10 Dry 57.6F 77F - - - - - 34 mhos 2799 None None - -
07/30/2014 23:06 Dry 57.6F 77F - - - - - 29 mhos 2341 None None - -
07/30/2014 22:56 Wet 56.8F 77F 32F 95 0% 0.00 in 0% 1 mhos 52 None None - -
07/30/2014 22:46 Wet 57.0F 77F 32F 5 0% 0.70 in 0% 0 mhos 37 None None - -
07/30/2014 22:40 Wet 57.0F 77F 32F 5 0% 0.70 in 0% 0 mhos 35 None None - -
07/30/2014 22:36 Wet 57.4F 77F 32F 5 1% 0.70 in 0% 3 mhos 204 None None - -
07/30/2014 22:26 Wet 57.6F 77F 32F 5 2% 0.70 in 0% 7 mhos 537 None None - -
07/30/2014 22:16 Wet 57.6F 77F 30F 5 6% 0.70 in 0% 23 mhos 1835 None None - -
07/30/2014 22:10 Wet 57.9F 77F 29F 5 9% 0.70 in 0% 33 mhos 2701 None None - -
07/30/2014 22:06 Wet 58.1F 78F 29F 5 11% 0.70 in 0% 40 mhos 3271 None None - -
07/30/2014 21:56 Wet 58.6F 77F 27F 5 15% 0.70 in 0% 54 mhos 4618 None None - -
07/30/2014 21:45 Wet 58.3F 78F 26F 5 16% 0.70 in 0% 56 mhos 4870 None None - -
07/30/2014 21:40 Wet 57.9F 78F 26F 5 17% 0.70 in 0% 56 mhos 4950 None None - -
07/30/2014 21:35 Wet 57.9F 78F 26F 5 18% 0.70 in 0% 59 mhos 5277 None None - -
07/30/2014 21:25 Wet 58.1F 78F 27F 5 16% 0.70 in 0% 54 mhos 4654 None None - -
Date/Time
(MDT)
Sf
Temp Chem Water Layer Surface Precipitation
Sf Sub Frz Factor Pct Depth IcePct Cond Salin Type Intens Accum Rate
07/30/2014 21:15 Wet 58.5F 77F 28F 5 14% 0.70 in 0% 48 mhos 4074 None None - -
07/30/2014 21:10 Wet 58.6F 78F 29F 5 11% 0.70 in 0% 41 mhos 3327 Yes - - -
07/30/2014 21:05 Wet 59.0F 78F 29F 5 10% 0.70 in 0% 36 mhos 2891 Yes - - -
07/30/2014 20:55 Wet 60.8F 77F 29F 5 9% 0.70 in 0% 34 mhos 2703 Yes - - -
07/30/2014 20:45 Wet 62.4F 77F 30F 5 8% 0.00 in 0% 33 mhos 2504 Yes - - -
07/30/2014 20:40 Wet 63.9F 77F 29F 5 9% 0.70 in 0% 35 mhos 2649 Yes - - -
07/30/2014 20:35 Wet 64.4F 77F 29F 5 9% 0.70 in 0% 36 mhos 2762 Yes - - -
07/30/2014 20:25 Wet 65.3F 77F 29F 5 10% 0.70 in 0% 40 mhos 3068 Yes - - -
07/30/2014 20:15 Wet 65.7F 77F 28F 5 12% 0.00 in 0% 46 mhos 3559 Yes - - -
07/30/2014 20:10 Wet 64.6F 77F 31F 5 4% 0.70 in 0% 18 mhos 1292 Yes - - -
07/30/2014 20:05 Wet 64.6F 77F 32F 5 0% 0.70 in 0% 0 mhos 30 Yes - - -
07/30/2014 19:55 Error 64.4F 77F - - - - - 0 mhos 30 Yes - - -
07/30/2014 19:45 Error 65.3F 77F - - - - - 0 mhos 30 Yes - - -
07/30/2014 19:40 Error 65.1F 77F - - - - - 0 mhos 30 Yes - - -
07/30/2014 19:35 Error 65.5F 77F - - - - - 0 mhos 30 Yes - - -
Date/Time
(MDT)
Sf
Temp Chem Water Layer Surface Precipitation
Sf Sub Frz Factor Pct Depth IcePct Cond Salin Type Intens Accum Rate
07/30/2014 19:25 Wet 65.7F 77F 24F 10 21% 0.00 in 0% 72 mhos 6157 Yes - - -
07/30/2014 19:15 Wet 66.6F 76F 26F 5 16% 0.70 in 0% 61 mhos 4941 Yes - - -
07/30/2014 19:10 Wet 67.3F 76F 3F 5 50% 0.00 in 0% 145 mhos 15000 Yes - - -
07/30/2014 19:05 Wet 67.8F 76F 3F 15 50% 0.00 in 0% 135 mhos 15000 Yes - - -
07/30/2014 18:54 Wet 68.4F 76F 26F 40 16% 0.00 in 0% 62 mhos 4933 Yes - - -
07/30/2014 18:44 Wet 71.1F 76F 32F 5 0% 0.70 in 0% 1 mhos 45 Yes - - -
07/30/2014 18:40 Wet 70.2F 76F 27F 5 14% 0.70 in 0% 56 mhos 4241 Yes - - -
07/30/2014 18:34 Wet 74.3F 76F 32F 5 1% 0.60 in 0% 4 mhos 243 Yes - - -
07/30/2014 18:24 Dry 82.2F 76F - - - - - 36 mhos 2324 None None - -
07/30/2014 18:14 Dry 87.1F 76F - - - - - 36 mhos 2197 None None - -
07/30/2014 18:10 Dry 88.7F 75F - - - - - 36 mhos 2154 None None - -
07/30/2014 18:04 Dry 88.9F 75F - - - - - 36 mhos 2133 None None - -
07/30/2014 17:54 Dry 90.7F 75F - - - - - 1 mhos 42 None None - -
07/30/2014 17:44 Dry 93.6F 75F - - - - - 1 mhos 41 None None - -
07/30/2014 17:40 Dry 94.8F 75F - - - - - 1 mhos 40 None None - -
Date/Time
(MDT)
Sf
Temp Chem Water Layer Surface Precipitation
Sf Sub Frz Factor Pct Depth IcePct Cond Salin Type Intens Accum Rate
07/30/2014 17:34 Dry 96.6F 75F - - - - - 1 mhos 40 None None - -
07/30/2014 17:24 Dry 100.8F 75F - - - - - 34 mhos 1843 None None - -
07/30/2014 17:14 Dry 102.6F 75F - - - - - 33 mhos 1794 None None - -
07/30/2014 17:10 Dry 103.6F 74F - - - - - 33 mhos 1769 None None - -
07/30/2014 17:04 Dry 105.6F 74F - - - - - 33 mhos 1721 None None - -
07/30/2014 16:54 Dry 108.3F 74F - - - - - 33 mhos 1668 None None - -
07/30/2014 16:44 Dry 109.2F 74F - - - - - 33 mhos 1657 None None - -
07/30/2014 16:40 Dry 109.4F 74F - - - - - 33 mhos 1655 None None - -
07/30/2014 16:34 Dry 106.3F 74F - - - - - 33 mhos 1711 None None - -
07/30/2014 16:24 Dry 110.1F 74F - - - - - 32 mhos 1628 None None - -
07/30/2014 16:14 Dry 112.5F 74F - - - - - 1 mhos 36 None None - -
07/30/2014 16:10 Dry 115.5F 74F - - - - - 1 mhos 35 None None - -
07/30/2014 16:04 Dry 119.3F 74F - - - - - 31 mhos 1449 None None - -
07/30/2014 15:54 Dry 120.0F 73F - - - - - 31 mhos 1443 None None - -
07/30/2014 15:44 Dry 119.8F 73F - - - - - 1 mhos 34 None None - -
Date/Time
(MDT)
Sf
Temp Chem Water Layer Surface Precipitation
Sf Sub Frz Factor Pct Depth IcePct Cond Salin Type Intens Accum Rate
07/30/2014 15:40 Dry 119.3F 73F - - - - - 1 mhos 34 None None - -
07/30/2014 15:34 Dry 119.1F 73F - - - - - 1 mhos 34 None None - -
07/30/2014 15:24 Dry 117.3F 73F - - - - - 1 mhos 35 None None - -
07/30/2014 15:14 Dry 120.6F 73F - - - - - 30 mhos 1430 None None - -
07/30/2014 15:10 Dry 119.3F 73F - - - - - 31 mhos 1449 None None - -
07/30/2014 15:04 Dry 118.9F 73F - - - - - 31 mhos 1462 None None - -
07/30/2014 14:54 Dry 118.0F 73F - - - - - 31 mhos 1479 None None - -
07/30/2014 14:44 Dry 114.3F 73F - - - - - 31 mhos 1535 None None - -
07/30/2014 14:40 Dry 115.0F 73F - - - - - 1 mhos 35 None None - -
07/30/2014 14:34 Dry 124.0F 73F - - - - - 30 mhos 1375 None None - -
07/30/2014 14:24 Dry 122.7F 73F - - - - - 30 mhos 1393 None None - -
07/30/2014 14:14 Dry 121.6F 72F - - - - - 30 mhos 1396 None None - -
07/30/2014 14:10 Dry 121.1F 72F - - - - - 31 mhos 1432 None None - -
07/30/2014 14:04 Dry 118.2F 72F - - - - - 0 mhos 0 None None - -
07/30/2014 13:54 Dry 116.1F 72F - - - - - 31 mhos 1524 None None - -
Date/Time
(MDT)
Sf
Temp Chem Water Layer Surface Precipitation
Sf Sub Frz Factor Pct Depth IcePct Cond Salin Type Intens Accum Rate
07/30/2014 13:44 Dry 109.8F 72F - - - - - 32 mhos 1641 None None - -
07/30/2014 13:40 Dry 110.1F 72F - - - - - 33 mhos 1647 None None - -
07/30/2014 13:34 Dry 110.1F 72F - - - - - 33 mhos 1646 None None - -
07/30/2014 13:24 Dry 112.6F 72F - - - - - 32 mhos 1599 None None - -
07/30/2014 13:14 Dry 110.1F 72F - - - - - 33 mhos 1646 None None - -
07/30/2014 13:10 Dry 111.2F 72F - - - - - 33 mhos 1635 None None - -
07/30/2014 13:03 Dry 108.3F 72F - - - - - 33 mhos 1688 None None - -
07/30/2014 12:53 Dry 106.2F 72F - - - - - 33 mhos 1737 None None - -
07/30/2014 12:43 Dry 102.4F 72F - - - - - 34 mhos 1819 None None - -
07/30/2014 12:40 Dry 101.5F 72F - - - - - 31 mhos 1672 None None - -
07/30/2014 12:33 Dry 99.1F 72F - - - - - 34 mhos 1901 None None - -
07/30/2014 12:23 Dry 95.9F 72F - - - - - 35 mhos 1988 None None - -
07/30/2014 12:13 Dry 93.7F 72F - - - - - 35 mhos 2036 None None - -
07/30/2014 12:10 Dry 93.6F 72F - - - - - 35 mhos 2041 None None - -
07/30/2014 12:03 Dry 93.2F 72F - - - - - 36 mhos 2060 None None - -
Date/Time
(MDT)
Sf
Temp Chem Water Layer Surface Precipitation
Sf Sub Frz Factor Pct Depth IcePct Cond Salin Type Intens Accum Rate
07/30/2014 11:53 Dry 87.8F 72F - - - - - 36 mhos 2182 None None - -
07/30/2014 11:43 Dry 90.7F 72F - - - - - 36 mhos 2118 None None - -
07/30/2014 11:40 Dry 92.5F 72F - - - - - 36 mhos 2073 None None - -
07/30/2014 11:33 Dry 91.9F 72F - - - - - 36 mhos 2095 None None - -
07/30/2014 11:23 Dry 88.0F 72F - - - - - 36 mhos 2194 None None - -
07/30/2014 11:13 Dry 87.8F 72F - - - - - 36 mhos 2215 None None - -
07/30/2014 11:10 Dry 86.2F 72F - - - - - 37 mhos 2260 None None - -
07/30/2014 11:03 Dry 84.4F 72F - - - - - 37 mhos 2297 None None - -
07/30/2014 10:53 Dry 86.5F 72F - - - - - 36 mhos 2239 None None - -
07/30/2014 10:43 Dry 89.1F 72F - - - - - 36 mhos 2160 None None - -
07/30/2014 10:40 Dry 88.9F 72F - - - - - 36 mhos 2177 None None - -
07/30/2014 10:33 Dry 88.5F 72F - - - - - 36 mhos 2186 None None - -
07/30/2014 10:23 Dry 86.2F 72F - - - - - 37 mhos 2260 None None - -
07/30/2014 10:13 Dry 84.6F 72F - - - - - 37 mhos 2310 None None - -
07/30/2014 10:10 Dry 83.8F 72F - - - - - 37 mhos 2306 None None - -
Date/Time
(MDT)
Sf
Temp Chem Water Layer Surface Precipitation
Sf Sub Frz Factor Pct Depth IcePct Cond Salin Type Intens Accum Rate
07/30/2014 10:03 Dry 83.5F 72F - - - - - 37 mhos 2348 None None - -
07/30/2014 09:53 Dry 80.1F 72F - - - - - 37 mhos 2438 None None - -
07/30/2014 09:42 Dry 77.2F 72F - - - - - 38 mhos 2541 None None - -
07/30/2014 09:40 Dry 76.3F 72F - - - - - 38 mhos 2564 None None - -
07/30/2014 09:32 Dry 73.9F 72F - - - - - 38 mhos 2641 None None - -
07/30/2014 09:22 Dry 71.8F 72F - - - - - 38 mhos 2717 None None - -
07/30/2014 09:12 Dry 69.8F 72F - - - - - 39 mhos 2794 None None - -
07/30/2014 09:10 Dry 68.9F 72F - - - - - 39 mhos 2816 None None - -
07/30/2014 09:02 Dry 67.8F 72F - - - - - 39 mhos 2852 None None - -
07/30/2014 08:52 Dry 64.8F 73F - - - - - 39 mhos 2965 None None - -
07/30/2014 08:42 Dry 61.9F 73F - - - - - 39 mhos 3062 None None - -
07/30/2014 08:40 Dry 61.7F 73F - - - - - 39 mhos 3068 None None - -
07/30/2014 08:32 Dry 61.0F 73F - - - - - 39 mhos 3089 None None - -
07/30/2014 08:22 Dry 61.0F 73F - - - - - 39 mhos 3070 None None - -
07/30/2014 08:12 Dry 59.4F 73F - - - - - 38 mhos 3101 None None - -
Date/Time
(MDT)
Sf
Temp Chem Water Layer Surface Precipitation
Sf Sub Frz Factor Pct Depth IcePct Cond Salin Type Intens Accum Rate
07/30/2014 08:10 Dry 59.0F 73F - - - - - 38 mhos 3112 None None - -
07/30/2014 08:02 Dry 57.4F 73F - - - - - 38 mhos 3126 None None - -
07/30/2014 07:52 Dry 55.8F 73F - - - - - 37 mhos 3137 None None - -
07/30/2014 07:42 Dry 53.8F 73F - - - - - 37 mhos 3138 None None - -
07/30/2014 07:40 Dry 53.8F 73F - - - - - 36 mhos 3077 None None - -
07/30/2014 07:32 Dry 52.5F 73F - - - - - 35 mhos 3069 None None - -
07/30/2014 07:22 Dry 51.8F 73F - - - - - 36 mhos 3115 None None - -
07/30/2014 07:12 Dry 50.9F 73F - - - - - 35 mhos 3095 None None - -
07/30/2014 07:10 Dry 50.7F 73F - - - - - 35 mhos 3089 None None - -
07/30/2014 07:01 Wet 50.2F 73F 29F 25 10% 0.00 in 0% 35 mhos 3089 None None - -
07/30/2014 06:51 Wet 50.0F 73F 29F 10 10% 0.00 in 0% 34 mhos 3016 None None - -
07/30/2014 06:41 Wet 49.8F 73F 29F 15 10% 0.00 in 0% 35 mhos 3123 None None - -
07/30/2014 06:40 Wet 49.8F 74F 29F 15 10% 0.00 in 0% 35 mhos 3122 None None - -
07/30/2014 06:31 Wet 49.8F 74F 29F 20 11% 0.00 in 0% 36 mhos 3177 None None - -
07/30/2014 06:21 Wet 49.8F 74F 29F 20 11% 0.00 in 0% 35 mhos 3160 None None - -
Date/Time
(MDT)
Sf
Temp Chem Water Layer Surface Precipitation
Sf Sub Frz Factor Pct Depth IcePct Cond Salin Type Intens Accum Rate
07/30/2014 06:11 Wet 49.8F 74F 29F 15 11% 0.00 in 0% 35 mhos 3161 None None - -
07/30/2014 06:10 Wet 49.8F 74F 29F 20 11% 0.00 in 0% 36 mhos 3179 None None - -
07/30/2014 06:01 Wet 50.0F 74F 29F 20 11% 0.00 in 0% 36 mhos 3192 None None - -
07/30/2014 05:51 Wet 50.2F 74F 29F 15 10% 0.00 in 0% 35 mhos 3105 None None - -
07/30/2014 05:41 Wet 50.4F 74F 29F 5 10% 0.00 in 0% 34 mhos 3028 None None - -
07/30/2014 05:40 Wet 50.4F 74F 29F 5 10% 0.00 in 0% 34 mhos 3046 None None - -
07/30/2014 05:31 Wet 50.5F 74F 29F 15 10% 0.00 in 0% 35 mhos 3114 None None - -
07/30/2014 05:21 Wet 50.7F 74F 29F 5 10% 0.00 in 0% 34 mhos 2984 None None - -
07/30/2014 05:11 Wet 50.9F 74F 29F 10 10% 0.00 in 0% 35 mhos 3127 Yes - - -
07/30/2014 04:40 Trace Moisture 51.3F 74F - 25 - - - 37 mhos 3225 None None - -
07/30/2014 04:33 Dry 51.3F 74F - - - - - 37 mhos 3314 None None - -
07/30/2014 04:23 Dry 51.3F 74F - - - - - 38 mhos 3326 None None - -
07/30/2014 04:13 Dry 51.4F 74F - - - - - 38 mhos 3323 None None - -
07/30/2014 04:10 Trace Moisture 51.6F 75F - 40 - - - 37 mhos 3279 None None - -
07/30/2014 04:03 Dry 51.8F 75F - - - - - 37 mhos 3293 None None - -
Date/Time
(MDT)
Sf
Temp Chem Water Layer Surface Precipitation
Sf Sub Frz Factor Pct Depth IcePct Cond Salin Type Intens Accum Rate
07/30/2014 03:53 Trace Moisture 51.8F 75F - 45 - - - 38 mhos 3317 None None - -
07/30/2014 03:43 Dry 52.0F 75F - - - - - 38 mhos 3354 None None - -
07/30/2014 03:40 Dry 52.2F 75F - - - - - 38 mhos 3323 None None - -
07/30/2014 03:33 Dry 52.2F 75F - - - - - 38 mhos 3345 None None - -
07/30/2014 03:23 Dry 52.5F 75F - - - - - 38 mhos 3328 None None - -
07/30/2014 03:13 Dry 52.7F 75F - - - - - 38 mhos 3312 None None - -
07/30/2014 03:10 Dry 52.9F 75F - - - - - 38 mhos 3312 None None - -
07/30/2014 03:03 Dry 53.2F 75F - - - - - 38 mhos 3291 None None - -
07/30/2014 02:53 Dry 53.6F 75F - - - - - 38 mhos 3297 None None - -
07/30/2014 02:43 Dry 53.8F 75F - - - - - 38 mhos 3286 None None - -
07/30/2014 02:40 Dry 54.0F 75F - - - - - 38 mhos 3255 None None - -
07/30/2014 02:33 Dry 54.1F 75F - - - - - 38 mhos 3272 None None - -
07/30/2014 02:23 Dry 54.7F 75F - - - - - 38 mhos 3253 None None - -
07/30/2014 02:13 Dry 55.0F 75F - - - - - 38 mhos 3239 None None - -
07/30/2014 02:10 Dry 55.0F 75F - - - - - 38 mhos 3234 None None - -
Date/Time
(MDT)
Sf
Temp Chem Water Layer Surface Precipitation
Sf Sub Frz Factor Pct Depth IcePct Cond Salin Type Intens Accum Rate
07/30/2014 02:03 Dry 55.4F 75F - - - - - 38 mhos 3221 None None - -
07/30/2014 01:53 Dry 55.8F 76F - - - - - 38 mhos 3209 None None - -
07/30/2014 01:43 Dry 56.3F 75F - - - - - 38 mhos 3216 None None - -
07/30/2014 01:40 Dry 56.3F 76F - - - - - 38 mhos 3210 None None - -
07/30/2014 01:33 Dry 56.7F 76F - - - - - 39 mhos 3223 None None - -
Change End Date:
Copyright © 1998-2005 Surface Systems, Inc.
All Rights Reserved
Send comments about the data to:
SCAN Web ® is a registered trademark of Surface Systems, Inc.
SCAN Web Version 5.6